createdAt,value
2023-03-08T00:00:35.574Z,97975.92
2023-03-08T00:03:19.621Z,97979.48
2023-03-08T00:05:51.866Z,97983.59
2023-03-08T00:08:23.993Z,97986.81
2023-03-08T00:10:56.125Z,97983.42
2023-03-08T00:13:28.348Z,97982.52
2023-03-08T00:16:03.950Z,97979.81
2023-03-08T00:18:36.931Z,97984.76
2023-03-08T00:21:11.793Z,97986.28
2023-03-08T00:23:45.131Z,97982.99
2023-03-08T00:26:17.317Z,97985.51
2023-03-08T00:28:49.920Z,97985.06
2023-03-08T00:31:22.252Z,97985.00
2023-03-08T00:33:56.539Z,97982.83
2023-03-08T00:36:28.744Z,97986.31
2023-03-08T00:39:00.840Z,97985.08
2023-03-08T00:41:32.980Z,97982.20
2023-03-08T00:44:05.255Z,97985.42
2023-03-08T00:46:37.606Z,97978.38
2023-03-08T00:49:10.254Z,97978.34
2023-03-08T00:51:42.374Z,97980.78
2023-03-08T00:54:15.203Z,97980.78
2023-03-08T00:56:47.297Z,97979.98
2023-03-08T00:59:19.483Z,97985.35
2023-03-08T01:01:51.811Z,97984.84
2023-03-08T01:04:24.066Z,97988.45
2023-03-08T01:06:56.797Z,97986.33
2023-03-08T01:09:28.956Z,97987.14
2023-03-08T01:12:01.221Z,97987.08
2023-03-08T01:14:33.395Z,97986.73
2023-03-08T01:17:05.614Z,97986.91
2023-03-08T01:19:37.961Z,97986.67
2023-03-08T01:22:10.207Z,97989.65
2023-03-08T01:24:45.138Z,97982.46
2023-03-08T01:27:17.422Z,97980.48
2023-03-08T01:29:49.606Z,97980.44
2023-03-08T01:32:22.252Z,97978.90
2023-03-08T01:34:54.502Z,97980.58
2023-03-08T01:37:26.593Z,97983.10
2023-03-08T01:39:58.966Z,97983.98
2023-03-08T01:42:31.450Z,97980.66
2023-03-08T01:45:05.557Z,97984.60
2023-03-08T01:47:38.987Z,97977.77
2023-03-08T01:50:20.948Z,97979.02
2023-03-08T01:52:56.830Z,97981.14
2023-03-08T01:55:29.047Z,97979.08
2023-03-08T01:58:01.269Z,97980.70
2023-03-08T02:00:34.004Z,97984.98
2023-03-08T02:03:09.783Z,97985.52
2023-03-08T02:05:44.798Z,97984.78
2023-03-08T02:08:21.745Z,97985.43
2023-03-08T02:10:54.396Z,97981.98
2023-03-08T02:13:27.944Z,97984.35
2023-03-08T02:16:03.935Z,97982.65
2023-03-08T02:18:36.442Z,97988.64
2023-03-08T02:21:08.605Z,97992.24
2023-03-08T02:23:40.748Z,97999.70
2023-03-08T02:26:12.917Z,98006.23
2023-03-08T02:28:45.650Z,98002.39
2023-03-08T02:31:18.798Z,98000.73
2023-03-08T02:33:50.892Z,98002.31
2023-03-08T02:36:23.009Z,98007.98
2023-03-08T02:38:55.309Z,98005.89
2023-03-08T02:41:27.623Z,98007.36
2023-03-08T02:43:59.839Z,98015.57
2023-03-08T02:46:33.078Z,98015.56
2023-03-08T02:49:05.302Z,98018.21
2023-03-08T02:51:37.444Z,98020.36
2023-03-08T02:54:09.690Z,98020.33
2023-03-08T02:56:42.033Z,98022.58
2023-03-08T02:59:14.812Z,98022.96
2023-03-08T03:01:48.930Z,98028.08
2023-03-08T03:04:21.035Z,98030.38
2023-03-08T03:06:53.265Z,98028.17
2023-03-08T03:09:25.903Z,98030.60
2023-03-08T03:11:58.062Z,98031.45
2023-03-08T03:14:31.304Z,98033.98
2023-03-08T03:17:04.009Z,98037.28
2023-03-08T03:19:36.432Z,98039.09
2023-03-08T03:22:08.701Z,98043.36
2023-03-08T03:24:41.022Z,98045.15
2023-03-08T03:27:13.119Z,98047.61
2023-03-08T03:29:45.544Z,98050.19
2023-03-08T03:32:20.883Z,98053.40
2023-03-08T03:34:53.509Z,98054.55
2023-03-08T03:37:26.393Z,98057.08
2023-03-08T03:39:58.693Z,98060.37
2023-03-08T03:42:31.115Z,98071.45
2023-03-08T03:45:12.672Z,98071.48
2023-03-08T03:47:45.095Z,98075.15
2023-03-08T03:50:17.642Z,98082.32
2023-03-08T03:52:57.406Z,98089.15
2023-03-08T03:55:29.932Z,98091.34
2023-03-08T03:58:02.539Z,98093.66
2023-03-08T04:00:36.410Z,98095.67
2023-03-08T04:03:25.981Z,98102.36
2023-03-08T04:06:08.385Z,98105.98
2023-03-08T04:08:42.886Z,98112.15
2023-03-08T04:11:19.227Z,98112.92
2023-03-08T04:13:52.312Z,98115.30
2023-03-08T04:16:29.618Z,98118.14
2023-03-08T04:19:04.743Z,98117.86
2023-03-08T04:21:37.808Z,98114.25
2023-03-08T04:24:11.542Z,98118.92
2023-03-08T04:26:43.959Z,98118.96
2023-03-08T04:29:17.917Z,98125.29
2023-03-08T04:31:50.079Z,98127.21
2023-03-08T04:34:23.918Z,98124.70
2023-03-08T04:36:56.269Z,98127.66
2023-03-08T04:39:28.863Z,98133.03
2023-03-08T04:42:01.445Z,98132.57
2023-03-08T04:44:34.840Z,98135.17
2023-03-08T04:47:08.315Z,98136.42
2023-03-08T04:49:48.524Z,98133.64
2023-03-08T04:52:20.995Z,98134.64
2023-03-08T04:54:55.340Z,98137.93
2023-03-08T04:57:30.530Z,98141.63
2023-03-08T05:00:06.062Z,98140.66
2023-03-08T05:02:41.527Z,98137.88
2023-03-08T05:05:17.877Z,98139.17
2023-03-08T05:07:50.316Z,98143.29
2023-03-08T05:10:22.685Z,98145.18
2023-03-08T05:12:55.571Z,98148.59
2023-03-08T05:15:28.392Z,98150.61
2023-03-08T05:18:00.599Z,98151.15
2023-03-08T05:20:33.133Z,98150.61
2023-03-08T05:23:05.404Z,98150.13
2023-03-08T05:25:45.450Z,98154.04
2023-03-08T05:28:17.834Z,98156.50
2023-03-08T05:30:50.733Z,98163.83
2023-03-08T05:33:23.359Z,98162.59
2023-03-08T05:35:58.880Z,98168.59
2023-03-08T05:38:32.158Z,98172.89
2023-03-08T05:41:06.965Z,98174.06
2023-03-08T05:43:39.301Z,98185.16
2023-03-08T05:46:15.880Z,98183.52
2023-03-08T05:48:48.879Z,98190.66
2023-03-08T05:51:22.461Z,98190.23
2023-03-08T05:53:54.682Z,98196.63
2023-03-08T05:56:27.721Z,98198.36
2023-03-08T05:59:10.081Z,98200.83
2023-03-08T06:01:42.525Z,98204.71
2023-03-08T06:04:22.598Z,98206.46
2023-03-08T06:06:55.206Z,98208.02
2023-03-08T06:09:29.319Z,98209.79
2023-03-08T06:12:01.852Z,98210.72
2023-03-08T06:14:34.859Z,98216.25
2023-03-08T06:17:07.488Z,98222.48
2023-03-08T06:19:41.227Z,98229.80
2023-03-08T06:22:13.540Z,98238.04
2023-03-08T06:24:49.775Z,98236.74
2023-03-08T06:27:25.708Z,98244.84
2023-03-08T06:29:58.436Z,98250.38
2023-03-08T06:32:30.605Z,98248.05
2023-03-08T06:35:03.017Z,98247.83
2023-03-08T06:37:37.189Z,98254.17
2023-03-08T06:40:14.013Z,98259.55
2023-03-08T06:42:47.115Z,98262.90
2023-03-08T06:45:20.828Z,98265.80
2023-03-08T06:47:52.999Z,98270.15
2023-03-08T06:50:25.810Z,98276.52
2023-03-08T06:52:58.842Z,98280.52
2023-03-08T06:55:43.349Z,98288.95
2023-03-08T06:58:15.523Z,98294.69
2023-03-08T07:00:47.954Z,98291.21
2023-03-08T07:03:20.086Z,98295.13
2023-03-08T07:05:52.319Z,98297.55
2023-03-08T07:08:24.521Z,98304.01
2023-03-08T07:10:56.972Z,98305.41
2023-03-08T07:13:29.985Z,98303.05
2023-03-08T07:16:06.361Z,98309.75
2023-03-08T07:18:38.827Z,98318.30
2023-03-08T07:21:12.359Z,98314.61
2023-03-08T07:23:44.447Z,98319.20
2023-03-08T07:26:16.659Z,98323.68
2023-03-08T07:28:51.569Z,98322.98
2023-03-08T07:31:23.716Z,98330.65
2023-03-08T07:33:55.928Z,98336.62
2023-03-08T07:36:28.177Z,98339.32
2023-03-08T07:39:00.238Z,98343.40
2023-03-08T07:41:33.273Z,98348.27
2023-03-08T07:44:05.572Z,98358.33
2023-03-08T07:46:37.777Z,98356.50
2023-03-08T07:49:11.836Z,98368.15
2023-03-08T07:51:43.951Z,98363.39
2023-03-08T07:54:16.112Z,98370.90
2023-03-08T07:56:48.541Z,98372.15
2023-03-08T07:59:21.103Z,98368.45
2023-03-08T08:01:53.225Z,98367.63
2023-03-08T08:04:25.502Z,98367.69
2023-03-08T08:06:59.399Z,98370.21
2023-03-08T08:09:31.602Z,98374.30
2023-03-08T08:12:03.945Z,98376.82
2023-03-08T08:14:36.126Z,98380.23
2023-03-08T08:17:08.507Z,98385.98
2023-03-08T08:19:40.985Z,98386.91
2023-03-08T08:22:13.326Z,98388.94
2023-03-08T08:24:45.544Z,98391.92
2023-03-08T08:27:18.006Z,98395.53
2023-03-08T08:29:50.989Z,98398.70
2023-03-08T08:32:23.109Z,98396.67
2023-03-08T08:34:55.291Z,98397.21
2023-03-08T08:37:27.512Z,98400.23
2023-03-08T08:39:59.812Z,98400.52
2023-03-08T08:42:32.032Z,98399.80
2023-03-08T08:45:04.347Z,98398.63
2023-03-08T08:47:36.563Z,98402.58
2023-03-08T08:50:13.976Z,98403.66
2023-03-08T08:52:46.318Z,98405.94
2023-03-08T08:55:18.784Z,98407.05
2023-03-08T08:57:50.985Z,98407.73
2023-03-08T09:00:23.730Z,98410.18
2023-03-08T09:02:55.912Z,98408.77
2023-03-08T09:05:28.439Z,98409.88
2023-03-08T09:08:02.614Z,98410.29
2023-03-08T09:10:36.453Z,98410.52
2023-03-08T09:13:09.159Z,98409.50
2023-03-08T09:15:41.271Z,98410.58
2023-03-08T09:18:13.494Z,98409.77
2023-03-08T09:20:45.709Z,98407.98
2023-03-08T09:23:17.886Z,98410.19
2023-03-08T09:25:58.253Z,98409.70
2023-03-08T09:28:30.406Z,98415.66
2023-03-08T09:31:09.977Z,98415.58
2023-03-08T09:33:42.793Z,98411.89
2023-03-08T09:36:16.563Z,98417.51
2023-03-08T09:38:50.712Z,98417.88
2023-03-08T09:41:42.996Z,98414.55
2023-03-08T09:44:34.866Z,98412.70
2023-03-08T09:47:14.333Z,98413.77
2023-03-08T09:49:49.448Z,98412.47
2023-03-08T09:52:31.022Z,98416.30
2023-03-08T09:55:05.405Z,98416.17
2023-03-08T09:57:42.294Z,98417.51
2023-03-08T10:00:22.920Z,98418.33
2023-03-08T10:03:08.005Z,98421.29
2023-03-08T10:05:47.008Z,98422.13
2023-03-08T10:08:25.110Z,98422.53
2023-03-08T10:11:01.709Z,98422.61
2023-03-08T10:13:36.414Z,98423.75
2023-03-08T10:16:16.457Z,98423.02
2023-03-08T10:18:52.678Z,98431.27
2023-03-08T10:21:27.201Z,98427.83
2023-03-08T10:24:05.967Z,98432.23
2023-03-08T10:26:38.061Z,98432.74
2023-03-08T10:29:12.212Z,98434.07
2023-03-08T10:31:47.246Z,98437.45
2023-03-08T10:34:21.431Z,98437.17
2023-03-08T10:36:59.077Z,98436.50
2023-03-08T10:39:31.731Z,98441.58
2023-03-08T10:42:14.692Z,98443.90
2023-03-08T10:44:53.449Z,98444.98
2023-03-08T10:47:29.346Z,98442.81
2023-03-08T10:50:16.558Z,98442.54
2023-03-08T10:52:50.881Z,98441.34
2023-03-08T10:55:24.640Z,98439.21
2023-03-08T10:57:58.691Z,98436.52
2023-03-08T11:00:37.004Z,98437.67
2023-03-08T11:03:18.205Z,98437.12
2023-03-08T11:06:03.156Z,98438.25
2023-03-08T11:08:39.031Z,98441.73
2023-03-08T11:11:13.623Z,98438.33
2023-03-08T11:13:47.188Z,98438.94
2023-03-08T11:16:38.082Z,98439.96
2023-03-08T11:19:22.101Z,98440.49
2023-03-08T11:22:05.187Z,98443.25
2023-03-08T11:24:53.870Z,98444.00
2023-03-08T11:27:38.844Z,98443.48
2023-03-08T11:30:24.017Z,98442.95
2023-03-08T11:33:09.033Z,98443.45
2023-03-08T11:35:53.148Z,98444.15
2023-03-08T11:38:28.140Z,98447.98
2023-03-08T11:41:03.017Z,98447.64
2023-03-08T11:43:51.777Z,98448.61
2023-03-08T11:46:27.529Z,98446.24
2023-03-08T11:49:24.196Z,98450.57
2023-03-08T11:52:04.679Z,98447.30
2023-03-08T11:54:49.618Z,98445.21
2023-03-08T11:57:22.197Z,98443.85
2023-03-08T11:59:57.446Z,98445.39
2023-03-08T12:02:32.057Z,98450.77
2023-03-08T12:05:11.607Z,98454.02
2023-03-08T12:07:48.824Z,98453.84
2023-03-08T12:10:25.291Z,98449.59
2023-03-08T12:13:01.121Z,98452.04
2023-03-08T12:15:38.820Z,98452.58
2023-03-08T12:18:17.557Z,98450.84
2023-03-08T12:20:51.671Z,98443.38
2023-03-08T12:23:33.501Z,98440.90
2023-03-08T12:26:10.523Z,98450.80
2023-03-08T12:28:46.950Z,98445.55
2023-03-08T12:31:29.783Z,98446.05
2023-03-08T12:34:12.606Z,98443.20
2023-03-08T12:36:46.117Z,98444.23
2023-03-08T12:39:31.582Z,98441.54
2023-03-08T12:42:16.086Z,98443.41
2023-03-08T12:44:48.283Z,98448.09
2023-03-08T12:47:24.133Z,98452.66
2023-03-08T12:49:57.967Z,98453.56
2023-03-08T12:52:35.517Z,98459.16
2023-03-08T12:55:19.613Z,98459.06
2023-03-08T12:57:55.166Z,98456.54
2023-03-08T13:00:33.180Z,98459.23
2023-03-08T13:03:08.126Z,98455.55
2023-03-08T13:05:39.329Z,98451.83
2023-03-08T13:08:23.938Z,98446.63
2023-03-08T13:11:11.598Z,98447.41
2023-03-08T13:13:50.247Z,98449.02
2023-03-08T13:16:35.595Z,98446.45
2023-03-08T13:19:17.976Z,98442.53
2023-03-08T13:22:00.366Z,98438.36
2023-03-08T13:24:42.764Z,98437.14
2023-03-08T13:27:38.532Z,98439.16
2023-03-08T13:30:19.466Z,98442.71
2023-03-08T13:32:53.379Z,98441.36
2023-03-08T13:35:25.902Z,98445.09
2023-03-08T13:38:00.198Z,98441.91
2023-03-08T13:40:33.507Z,98439.99
2023-03-08T13:43:08.739Z,98437.30
2023-03-08T13:45:41.742Z,98435.18
2023-03-08T13:48:15.905Z,98437.91
2023-03-08T13:50:51.232Z,98440.20
2023-03-08T13:53:28.334Z,98445.31
2023-03-08T13:56:03.499Z,98444.15
2023-03-08T13:58:39.425Z,98434.87
2023-03-08T14:01:17.484Z,98436.29
2023-03-08T14:03:50.698Z,98439.02
2023-03-08T14:06:29.810Z,98436.57
2023-03-08T14:09:03.895Z,98434.27
2023-03-08T14:11:38.534Z,98432.09
2023-03-08T14:14:20.510Z,98428.75
2023-03-08T14:16:55.221Z,98427.10
2023-03-08T14:19:29.899Z,98427.39
2023-03-08T14:22:04.194Z,98426.35
2023-03-08T14:24:38.224Z,98423.63
2023-03-08T14:27:38.029Z,98424.11
2023-03-08T14:30:19.352Z,98422.23
2023-03-08T14:33:04.496Z,98422.77
2023-03-08T14:35:39.179Z,98427.36
2023-03-08T14:38:23.600Z,98421.48
2023-03-08T14:40:56.330Z,98420.41
2023-03-08T14:43:29.221Z,98420.41
2023-03-08T14:46:03.902Z,98416.80
2023-03-08T14:48:37.423Z,98418.77
2023-03-08T14:51:29.715Z,98416.70
2023-03-08T14:54:03.871Z,98415.07
2023-03-08T14:56:36.464Z,98415.32
2023-03-08T14:59:18.690Z,98414.53
2023-03-08T15:01:58.971Z,98414.73
2023-03-08T15:04:31.350Z,98413.02
2023-03-08T15:07:04.634Z,98413.67
2023-03-08T15:09:37.646Z,98412.25
2023-03-08T15:12:12.324Z,98412.02
2023-03-08T15:14:44.799Z,98409.72
2023-03-08T15:17:16.967Z,98407.55
2023-03-08T15:19:49.413Z,98405.50
2023-03-08T15:22:21.606Z,98406.20
2023-03-08T15:24:53.831Z,98403.53
2023-03-08T15:27:26.021Z,98408.11
2023-03-08T15:29:58.212Z,98409.48
2023-03-08T15:32:30.301Z,98409.66
2023-03-08T15:35:02.501Z,98408.79
2023-03-08T15:37:34.633Z,98409.29
2023-03-08T15:40:12.405Z,98407.10
2023-03-08T15:42:44.700Z,98409.39
2023-03-08T15:45:17.411Z,98411.04
2023-03-08T15:48:00.388Z,98406.84
2023-03-08T15:50:34.710Z,98407.09
2023-03-08T15:53:07.459Z,98406.85
2023-03-08T15:55:41.225Z,98407.32
2023-03-08T15:58:13.385Z,98406.95
2023-03-08T16:00:45.580Z,98404.30
2023-03-08T16:03:26.099Z,98405.77
2023-03-08T16:05:58.738Z,98406.61
2023-03-08T16:08:31.547Z,98406.66
2023-03-08T16:11:07.003Z,98404.39
2023-03-08T16:13:39.248Z,98408.73
2023-03-08T16:16:11.760Z,98407.75
2023-03-08T16:18:44.763Z,98411.15
2023-03-08T16:21:17.239Z,98413.97
2023-03-08T16:23:49.460Z,98412.75
2023-03-08T16:26:22.044Z,98415.87
2023-03-08T16:28:54.245Z,98418.83
2023-03-08T16:31:26.450Z,98420.47
2023-03-08T16:33:58.752Z,98423.69
2023-03-08T16:36:30.970Z,98427.55
2023-03-08T16:39:04.164Z,98424.96
2023-03-08T16:41:38.466Z,98426.50
2023-03-08T16:44:21.557Z,98424.10
2023-03-08T16:46:54.569Z,98424.13
2023-03-08T16:49:28.702Z,98422.77
2023-03-08T16:52:01.318Z,98422.73
2023-03-08T16:54:33.703Z,98419.25
2023-03-08T16:57:18.313Z,98418.89
2023-03-08T16:59:51.855Z,98416.45
2023-03-08T17:02:24.849Z,98416.17
2023-03-08T17:04:57.465Z,98411.41
2023-03-08T17:07:30.393Z,98410.39
2023-03-08T17:10:02.668Z,98411.29
2023-03-08T17:12:35.151Z,98406.89
2023-03-08T17:15:10.969Z,98407.19
2023-03-08T17:17:43.431Z,98415.52
2023-03-08T17:20:17.736Z,98410.54
2023-03-08T17:22:50.315Z,98415.35
2023-03-08T17:25:22.976Z,98418.31
2023-03-08T17:27:55.574Z,98413.13
2023-03-08T17:30:31.783Z,98412.81
2023-03-08T17:33:04.131Z,98409.91
2023-03-08T17:35:39.695Z,98400.98
2023-03-08T17:38:12.283Z,98401.79
2023-03-08T17:40:46.556Z,98403.45
2023-03-08T17:43:20.176Z,98399.84
2023-03-08T17:46:01.139Z,98396.71
2023-03-08T17:48:34.429Z,98390.86
2023-03-08T17:51:09.416Z,98389.73
2023-03-08T17:53:42.344Z,98390.85
2023-03-08T17:56:16.797Z,98389.09
2023-03-08T17:58:50.469Z,98387.50
2023-03-08T18:01:24.663Z,98385.73
2023-03-08T18:03:58.066Z,98384.03
2023-03-08T18:06:33.481Z,98384.16
2023-03-08T18:09:08.640Z,98377.54
2023-03-08T18:11:41.597Z,98373.13
2023-03-08T18:14:15.973Z,98373.19
2023-03-08T18:16:48.345Z,98374.48
2023-03-08T18:19:20.728Z,98370.51
2023-03-08T18:21:55.098Z,98371.64
2023-03-08T18:24:28.621Z,98371.85
2023-03-08T18:27:01.703Z,98370.66
2023-03-08T18:29:34.686Z,98366.64
2023-03-08T18:32:08.454Z,98368.23
2023-03-08T18:34:41.508Z,98366.19
2023-03-08T18:37:14.008Z,98366.52
2023-03-08T18:39:46.536Z,98363.23
2023-03-08T18:42:19.033Z,98360.27
2023-03-08T18:44:51.738Z,98353.29
2023-03-08T18:47:24.478Z,98354.57
2023-03-08T18:49:56.815Z,98347.52
2023-03-08T18:52:30.913Z,98342.72
2023-03-08T18:55:03.311Z,98339.61
2023-03-08T18:57:35.626Z,98339.26
2023-03-08T19:00:12.190Z,98333.52
2023-03-08T19:02:46.287Z,98334.05
2023-03-08T19:05:19.218Z,98330.47
2023-03-08T19:07:54.606Z,98327.38
2023-03-08T19:10:25.341Z,98330.13
2023-03-08T19:12:58.006Z,98331.47
2023-03-08T19:15:30.355Z,98335.10
2023-03-08T19:18:02.740Z,98335.77
2023-03-08T19:20:38.771Z,98335.84
2023-03-08T19:23:13.091Z,98336.13
2023-03-08T19:25:59.285Z,98334.19
2023-03-08T19:28:31.597Z,98334.96
2023-03-08T19:31:04.512Z,98335.12
2023-03-08T19:33:36.884Z,98335.20
2023-03-08T19:36:11.797Z,98332.98
2023-03-08T19:38:44.012Z,98333.73
2023-03-08T19:41:16.271Z,98335.06
2023-03-08T19:43:49.453Z,98335.67
2023-03-08T19:46:21.699Z,98339.98
2023-03-08T19:48:54.096Z,98334.70
2023-03-08T19:51:26.368Z,98331.55
2023-03-08T19:53:58.781Z,98332.52
2023-03-08T19:56:31.582Z,98332.42
2023-03-08T19:59:04.188Z,98334.92
2023-03-08T20:01:37.358Z,98333.05
2023-03-08T20:04:11.018Z,98333.06
2023-03-08T20:06:46.197Z,98331.34
2023-03-08T20:09:21.876Z,98331.09
2023-03-08T20:11:58.760Z,98330.30
2023-03-08T20:14:31.523Z,98326.67
2023-03-08T20:17:05.443Z,98328.64
2023-03-08T20:19:38.159Z,98331.19
2023-03-08T20:22:10.891Z,98326.60
2023-03-08T20:24:43.208Z,98327.30
2023-03-08T20:27:15.489Z,98329.45
2023-03-08T20:29:48.089Z,98330.97
2023-03-08T20:32:20.344Z,98331.63
2023-03-08T20:34:52.620Z,98326.80
2023-03-08T20:37:25.100Z,98329.79
2023-03-08T20:39:58.992Z,98331.32
2023-03-08T20:42:34.799Z,98328.25
2023-03-08T20:45:10.506Z,98324.48
2023-03-08T20:47:42.854Z,98322.98
2023-03-08T20:50:15.943Z,98323.90
2023-03-08T20:52:48.720Z,98323.10
2023-03-08T20:55:21.701Z,98324.55
2023-03-08T20:57:55.179Z,98323.35
2023-03-08T21:00:31.082Z,98321.29
2023-03-08T21:03:03.387Z,98323.38
2023-03-08T21:05:37.494Z,98324.25
2023-03-08T21:08:10.108Z,98321.77
2023-03-08T21:10:42.807Z,98322.40
2023-03-08T21:13:16.137Z,98322.89
2023-03-08T21:15:48.702Z,98320.48
2023-03-08T21:18:21.118Z,98315.06
2023-03-08T21:20:54.579Z,98311.70
2023-03-08T21:23:27.184Z,98310.48
2023-03-08T21:26:05.472Z,98306.11
2023-03-08T21:28:37.780Z,98308.20
2023-03-08T21:31:12.597Z,98310.83
2023-03-08T21:33:45.520Z,98307.08
2023-03-08T21:36:18.461Z,98307.83
2023-03-08T21:38:56.601Z,98311.44
2023-03-08T21:41:30.857Z,98305.23
2023-03-08T21:44:06.148Z,98307.80
2023-03-08T21:46:40.723Z,98305.17
2023-03-08T21:49:18.152Z,98302.39
2023-03-08T21:51:51.152Z,98302.16
2023-03-08T21:54:24.482Z,98301.46
2023-03-08T21:56:57.700Z,98296.88
2023-03-08T21:59:30.516Z,98298.33
2023-03-08T22:02:03.382Z,98301.80
2023-03-08T22:04:35.814Z,98294.60
2023-03-08T22:07:08.159Z,98296.71
2023-03-08T22:09:40.964Z,98291.30
2023-03-08T22:12:14.980Z,98285.29
2023-03-08T22:14:47.344Z,98283.53
2023-03-08T22:17:19.869Z,98288.38
2023-03-08T22:19:53.891Z,98289.21
2023-03-08T22:22:26.773Z,98291.35
2023-03-08T22:24:59.740Z,98285.69
2023-03-08T22:27:32.427Z,98285.39
2023-03-08T22:30:08.237Z,98289.33
2023-03-08T22:32:42.052Z,98294.16
2023-03-08T22:35:15.621Z,98297.05
2023-03-08T22:37:48.659Z,98296.68
2023-03-08T22:40:21.380Z,98295.30
2023-03-08T22:42:53.683Z,98287.84
2023-03-08T22:45:26.125Z,98287.08
2023-03-08T22:48:01.256Z,98289.19
2023-03-08T22:50:33.944Z,98289.59
2023-03-08T22:53:06.468Z,98290.21
2023-03-08T22:55:39.178Z,98293.58
2023-03-08T22:58:11.520Z,98296.92
2023-03-08T23:00:43.860Z,98296.84
2023-03-08T23:03:16.691Z,98294.94
2023-03-08T23:05:49.093Z,98296.96
2023-03-08T23:08:23.873Z,98293.27
2023-03-08T23:10:54.912Z,98295.95
2023-03-08T23:13:33.773Z,98299.34
2023-03-08T23:16:09.247Z,98295.71
2023-03-08T23:18:42.688Z,98297.20
2023-03-08T23:21:16.772Z,98299.14
2023-03-08T23:23:50.276Z,98296.97
2023-03-08T23:26:27.241Z,98299.63
2023-03-08T23:29:03.428Z,98301.33
2023-03-08T23:31:40.773Z,98302.27
2023-03-08T23:34:13.913Z,98299.99
2023-03-08T23:36:46.737Z,98299.48
2023-03-08T23:39:20.206Z,98298.95
2023-03-08T23:41:52.822Z,98297.93
2023-03-08T23:44:25.214Z,98299.69
2023-03-08T23:46:57.508Z,98295.90
2023-03-08T23:49:30.190Z,98295.10
2023-03-08T23:52:02.684Z,98295.42
2023-03-08T23:54:35.130Z,98297.88
2023-03-08T23:57:07.669Z,98293.30
2023-03-08T23:59:40.486Z,98292.95
